createdAt,value
2022-08-20T00:03:29.356Z,97338.50
2022-08-20T00:07:33.070Z,97338.72
2022-08-20T00:11:38.163Z,97325.31
2022-08-20T00:15:42.414Z,97342.19
2022-08-20T00:19:46.306Z,97348.50
2022-08-20T00:23:52.443Z,97355.03
2022-08-20T00:27:58.375Z,97355.47
2022-08-20T00:32:01.697Z,97367.28
2022-08-20T00:36:10.032Z,97369.34
2022-08-20T00:40:22.274Z,97362.44
2022-08-20T00:44:28.595Z,97365.50
2022-08-20T00:48:34.817Z,97365.16
2022-08-20T00:52:38.621Z,97357.91
2022-08-20T00:56:44.666Z,97361.41
2022-08-20T01:00:51.327Z,97367.56
2022-08-20T01:04:56.204Z,97362.53
2022-08-20T01:09:02.618Z,97361.38
2022-08-20T01:13:10.646Z,97353.88
2022-08-20T01:17:26.084Z,97362.84
2022-08-20T01:21:32.915Z,97343.75
2022-08-20T01:25:46.710Z,97345.38
2022-08-20T01:29:51.361Z,97341.72
2022-08-20T01:33:56.644Z,97341.72
2022-08-20T01:38:00.356Z,97339.88
2022-08-20T01:42:10.628Z,97347.00
2022-08-20T01:46:14.878Z,97361.19
2022-08-20T01:50:25.347Z,97350.66
2022-08-20T01:54:30.350Z,97342.59
2022-08-20T01:58:40.077Z,97337.97
2022-08-20T02:02:45.037Z,97339.84
2022-08-20T02:06:56.581Z,97338.28
2022-08-20T02:11:01.046Z,97340.41
2022-08-20T02:15:08.196Z,97337.00
2022-08-20T02:19:14.586Z,97329.75
2022-08-20T02:23:18.221Z,97312.97
2022-08-20T02:27:24.024Z,97317.84
2022-08-20T02:31:32.953Z,97325.59
2022-08-20T02:35:39.757Z,97326.25
2022-08-20T02:39:43.185Z,97315.75
2022-08-20T02:43:47.149Z,97319.63
2022-08-20T02:47:53.107Z,97310.91
2022-08-20T02:51:56.643Z,97303.41
2022-08-20T02:56:00.547Z,97296.50
2022-08-20T03:00:05.967Z,97307.25
2022-08-20T03:04:11.036Z,97299.34
2022-08-20T03:08:16.437Z,97288.44
2022-08-20T03:12:19.697Z,97285.19
2022-08-20T03:16:23.221Z,97301.66
2022-08-20T03:20:29.140Z,97305.53
2022-08-20T03:24:33.215Z,97303.53
2022-08-20T03:28:37.493Z,97315.31
2022-08-20T03:32:42.305Z,97310.84
2022-08-20T03:36:50.390Z,97312.03
2022-08-20T03:40:54.046Z,97321.72
2022-08-20T03:44:59.310Z,97331.19
2022-08-20T03:49:02.883Z,97335.13
2022-08-20T03:53:08.263Z,97340.22
2022-08-20T03:57:17.346Z,97337.44
2022-08-20T04:01:45.009Z,97345.16
2022-08-20T04:05:45.154Z,97344.41
2022-08-20T04:09:50.218Z,97350.09
2022-08-20T04:13:54.017Z,97360.53
2022-08-20T04:17:57.857Z,97365.09
2022-08-20T04:22:02.205Z,97373.75
2022-08-20T04:26:07.550Z,97377.53
2022-08-20T04:30:12.798Z,97384.38
2022-08-20T04:34:20.025Z,97372.31
2022-08-20T04:38:24.219Z,97365.44
2022-08-20T04:42:29.884Z,97366.00
2022-08-20T04:46:33.705Z,97369.91
2022-08-20T04:50:39.408Z,97376.22
2022-08-20T04:54:44.321Z,97387.22
2022-08-20T04:58:49.459Z,97387.69
2022-08-20T05:02:52.910Z,97380.06
2022-08-20T05:06:56.456Z,97386.50
2022-08-20T05:11:24.993Z,97377.53
2022-08-20T05:15:26.605Z,97400.22
2022-08-20T05:19:30.818Z,97388.63
2022-08-20T05:23:34.699Z,97372.53
2022-08-20T05:27:38.589Z,97369.00
2022-08-20T05:31:43.713Z,97364.66
2022-08-20T05:35:47.964Z,97367.84
2022-08-20T05:39:51.732Z,97365.91
2022-08-20T05:43:54.867Z,97377.19
2022-08-20T05:47:59.995Z,97373.66
2022-08-20T05:52:06.947Z,97393.56
2022-08-20T05:56:11.559Z,97393.09
2022-08-20T06:00:16.519Z,97395.06
2022-08-20T06:04:29.156Z,97407.03
2022-08-20T06:08:34.163Z,97405.66
2022-08-20T06:12:37.636Z,97411.88
2022-08-20T06:16:56.304Z,97413.75
2022-08-20T06:21:03.091Z,97411.22
2022-08-20T06:25:09.179Z,97415.47
2022-08-20T06:29:12.276Z,97409.59
2022-08-20T06:33:16.239Z,97419.47
2022-08-20T06:37:27.419Z,97429.47
2022-08-20T06:41:37.170Z,97437.13
2022-08-20T06:45:41.901Z,97442.50
2022-08-20T06:49:46.179Z,97453.09
2022-08-20T06:53:51.200Z,97463.28
2022-08-20T06:58:01.571Z,97459.59
2022-08-20T07:02:04.875Z,97471.38
2022-08-20T07:06:08.990Z,97468.47
2022-08-20T07:10:17.411Z,97481.25
2022-08-20T07:14:21.075Z,97494.47
2022-08-20T07:18:28.335Z,97488.41
2022-08-20T07:22:32.339Z,97488.84
2022-08-20T07:26:37.490Z,97479.31
2022-08-20T07:30:59.434Z,97482.94
2022-08-20T07:35:18.610Z,97488.03
2022-08-20T07:39:22.321Z,97488.47
2022-08-20T07:43:28.492Z,97500.28
2022-08-20T07:47:34.620Z,97501.47
2022-08-20T07:51:38.484Z,97500.47
2022-08-20T07:55:42.169Z,97498.03
2022-08-20T08:00:03.137Z,97496.56
2022-08-20T08:04:08.089Z,97488.84
2022-08-20T08:08:14.852Z,97492.53
2022-08-20T08:12:20.054Z,97485.16
2022-08-20T08:16:25.770Z,97491.59
2022-08-20T08:20:29.299Z,97492.00
2022-08-20T08:24:32.408Z,97496.63
2022-08-20T08:28:37.583Z,97502.69
2022-08-20T08:33:03.804Z,97508.56
2022-08-20T08:37:07.883Z,97507.31
2022-08-20T08:41:19.776Z,97509.22
2022-08-20T08:45:24.202Z,97500.31
2022-08-20T08:49:38.194Z,97512.91
2022-08-20T08:53:47.227Z,97498.94
2022-08-20T08:57:51.353Z,97513.00
2022-08-20T09:01:58.455Z,97500.47
2022-08-20T09:06:05.327Z,97500.13
2022-08-20T09:10:09.833Z,97509.47
2022-08-20T09:14:14.003Z,97508.56
2022-08-20T09:18:17.059Z,97512.25
2022-08-20T09:22:26.614Z,97510.75
2022-08-20T09:26:30.318Z,97515.47
2022-08-20T09:30:33.595Z,97510.44
2022-08-20T09:34:38.953Z,97516.22
2022-08-20T09:38:43.887Z,97526.03
2022-08-20T09:42:47.653Z,97527.75
2022-08-20T09:46:50.838Z,97546.88
2022-08-20T09:50:54.362Z,97544.69
2022-08-20T09:55:01.984Z,97536.94
2022-08-20T09:59:06.003Z,97543.53
2022-08-20T10:03:09.267Z,97539.75
2022-08-20T10:07:12.828Z,97532.56
2022-08-20T10:11:20.950Z,97542.84
2022-08-20T10:15:24.587Z,97545.72
2022-08-20T10:19:32.655Z,97534.53
2022-08-20T10:23:35.854Z,97532.34
2022-08-20T10:27:41.168Z,97537.41
2022-08-20T10:31:45.007Z,97535.13
2022-08-20T10:35:48.719Z,97537.31
2022-08-20T10:39:54.351Z,97534.53
2022-08-20T10:43:59.755Z,97529.09
2022-08-20T10:48:03.848Z,97531.84
2022-08-20T10:52:07.623Z,97538.94
2022-08-20T10:56:15.780Z,97530.94
2022-08-20T11:00:20.976Z,97545.34
2022-08-20T11:04:24.196Z,97552.28
2022-08-20T11:08:34.329Z,97551.72
2022-08-20T11:12:39.854Z,97557.03
2022-08-20T11:16:48.175Z,97563.72
2022-08-20T11:20:51.947Z,97553.97
2022-08-20T11:24:55.947Z,97557.38
2022-08-20T11:28:59.584Z,97559.63
2022-08-20T11:33:04.549Z,97545.00
2022-08-20T11:37:08.229Z,97539.69
2022-08-20T11:41:11.882Z,97545.69
2022-08-20T11:45:16.446Z,97542.94
2022-08-20T11:49:21.838Z,97548.13
2022-08-20T11:53:25.019Z,97560.47
2022-08-20T11:57:30.353Z,97559.06
2022-08-20T12:01:34.165Z,97540.50
2022-08-20T12:05:39.496Z,97563.81
2022-08-20T12:09:50.787Z,97559.66
2022-08-20T12:13:59.815Z,97545.03
2022-08-20T12:18:09.220Z,97551.69
2022-08-20T12:22:23.146Z,97553.88
2022-08-20T12:26:28.512Z,97559.00
2022-08-20T12:30:32.531Z,97563.34
2022-08-20T12:34:36.536Z,97564.34
2022-08-20T12:38:41.459Z,97570.44
2022-08-20T12:42:45.849Z,97565.63
2022-08-20T12:46:49.163Z,97571.41
2022-08-20T12:50:52.871Z,97568.66
2022-08-20T12:54:58.883Z,97560.09
2022-08-20T12:59:02.336Z,97565.88
2022-08-20T13:03:08.120Z,97558.03
2022-08-20T13:07:13.265Z,97559.59
2022-08-20T13:11:17.937Z,97563.72
2022-08-20T13:15:22.926Z,97575.97
2022-08-20T13:19:26.687Z,97569.78
2022-08-20T13:23:29.889Z,97578.66
2022-08-20T13:27:38.851Z,97571.38
2022-08-20T13:31:42.889Z,97567.03
2022-08-20T13:35:46.562Z,97576.53
2022-08-20T13:39:49.984Z,97578.00
2022-08-20T13:43:55.322Z,97555.75
2022-08-20T13:47:58.955Z,97560.50
2022-08-20T13:52:02.547Z,97554.44
2022-08-20T13:56:06.599Z,97548.81
2022-08-20T14:00:16.694Z,97543.31
2022-08-20T14:04:20.236Z,97536.69
2022-08-20T14:08:25.839Z,97530.13
2022-08-20T14:12:30.985Z,97536.34
2022-08-20T14:16:38.001Z,97533.00
2022-08-20T14:20:41.846Z,97532.91
2022-08-20T14:24:50.245Z,97537.75
2022-08-20T14:28:53.898Z,97535.78
2022-08-20T14:32:58.957Z,97545.13
2022-08-20T14:37:11.885Z,97535.22
2022-08-20T14:41:15.433Z,97541.69
2022-08-20T14:45:19.695Z,97540.53
2022-08-20T14:49:24.876Z,97551.03
2022-08-20T14:53:28.064Z,97555.41
2022-08-20T14:57:31.603Z,97556.91
2022-08-20T15:01:35.144Z,97552.84
2022-08-20T15:05:41.281Z,97547.19
2022-08-20T15:09:44.551Z,97543.16
2022-08-20T15:13:48.113Z,97554.22
2022-08-20T15:17:53.818Z,97558.91
2022-08-20T15:21:59.016Z,97556.72
2022-08-20T15:26:02.970Z,97561.47
2022-08-20T15:30:08.872Z,97563.38
2022-08-20T15:34:17.615Z,97568.78
2022-08-20T15:38:22.673Z,97566.25
2022-08-20T15:42:26.444Z,97573.47
2022-08-20T15:46:31.627Z,97578.06
2022-08-20T15:50:58.060Z,97579.44
2022-08-20T15:55:03.853Z,97586.06
2022-08-20T15:59:20.459Z,97594.88
2022-08-20T16:03:52.259Z,97599.00
2022-08-20T16:08:23.383Z,97604.94
2022-08-20T16:12:35.187Z,97601.91
2022-08-20T16:16:45.558Z,97607.09
2022-08-20T16:20:51.578Z,97604.75
2022-08-20T16:24:56.315Z,97604.81
2022-08-20T16:29:11.386Z,97592.47
2022-08-20T16:33:22.192Z,97593.50
2022-08-20T16:37:31.280Z,97602.47
2022-08-20T16:41:41.486Z,97604.31
2022-08-20T16:45:51.972Z,97602.09
2022-08-20T16:50:04.835Z,97616.34
2022-08-20T16:54:08.381Z,97622.91
2022-08-20T16:58:11.742Z,97621.34
2022-08-20T17:02:21.681Z,97623.03
2022-08-20T17:06:30.850Z,97628.38
2022-08-20T17:10:36.806Z,97630.44
2022-08-20T17:14:49.770Z,97618.66
2022-08-20T17:18:56.094Z,97626.16
2022-08-20T17:23:12.330Z,97631.25
2022-08-20T17:27:30.844Z,97625.16
2022-08-20T17:31:38.814Z,97627.19
2022-08-20T17:35:50.843Z,97631.44
2022-08-20T17:39:57.112Z,97633.09
2022-08-20T17:44:02.380Z,97641.03
2022-08-20T17:48:09.750Z,97642.25
2022-08-20T17:52:24.960Z,97639.81
2022-08-20T17:56:36.476Z,97637.38
2022-08-20T18:00:40.068Z,97637.63
2022-08-20T18:04:45.178Z,97634.22
2022-08-20T18:08:58.805Z,97647.59
2022-08-20T18:13:13.061Z,97650.84
2022-08-20T18:17:28.888Z,97659.56
2022-08-20T18:21:57.793Z,97656.16
2022-08-20T18:26:09.951Z,97664.66
2022-08-20T18:30:19.856Z,97669.72
2022-08-20T18:34:37.875Z,97662.44
2022-08-20T18:38:44.007Z,97673.63
2022-08-20T18:42:49.585Z,97672.38
2022-08-20T18:46:55.448Z,97676.84
2022-08-20T18:55:33.963Z,97683.16
2022-08-20T18:59:44.736Z,97694.75
2022-08-20T19:03:52.150Z,97683.59
2022-08-20T19:07:58.245Z,97670.44
2022-08-20T19:12:18.051Z,97688.72
2022-08-20T19:16:28.050Z,97692.38
2022-08-20T19:20:34.739Z,97691.81
2022-08-20T19:24:43.765Z,97681.63
2022-08-20T19:28:49.934Z,97685.09
2022-08-20T19:32:54.655Z,97683.09
2022-08-20T19:37:05.200Z,97676.16
2022-08-20T19:41:31.049Z,97666.03
2022-08-20T19:45:40.484Z,97675.59
2022-08-20T19:49:58.735Z,97672.34
2022-08-20T19:54:04.446Z,97670.94
2022-08-20T19:58:25.978Z,97671.75
2022-08-20T20:02:33.162Z,97670.13
2022-08-20T20:06:42.810Z,97660.78
2022-08-20T20:10:53.960Z,97671.00
2022-08-20T20:14:57.471Z,97666.72
2022-08-20T20:19:24.787Z,97669.56
2022-08-20T20:23:45.792Z,97676.72
2022-08-20T20:27:51.694Z,97674.50
2022-08-20T20:31:59.128Z,97678.13
2022-08-20T20:36:05.766Z,97682.84
2022-08-20T20:40:21.238Z,97689.97
2022-08-20T20:44:27.457Z,97670.56
2022-08-20T20:48:40.145Z,97697.09
2022-08-20T20:53:01.905Z,97681.66
2022-08-20T20:57:09.469Z,97676.38
2022-08-20T21:01:12.812Z,97679.25
2022-08-20T21:05:17.657Z,97681.28
2022-08-20T21:09:21.444Z,97678.84
2022-08-20T21:13:26.569Z,97687.78
2022-08-20T21:17:29.922Z,97686.41
2022-08-20T21:21:33.205Z,97673.63
2022-08-20T21:25:37.183Z,97683.78
2022-08-20T21:29:41.820Z,97685.25
2022-08-20T21:33:45.173Z,97687.06
2022-08-20T21:37:48.385Z,97674.47
2022-08-20T21:41:51.833Z,97679.75
2022-08-20T21:45:56.410Z,97675.53
2022-08-20T21:49:59.975Z,97683.06
2022-08-20T21:54:03.385Z,97673.72
2022-08-20T21:58:07.197Z,97670.88
2022-08-20T22:02:12.500Z,97687.75
2022-08-20T22:06:16.350Z,97670.06
2022-08-20T22:10:20.386Z,97674.53
2022-08-20T22:14:24.673Z,97668.44
2022-08-20T22:18:29.876Z,97660.72
2022-08-20T22:22:33.258Z,97669.47
2022-08-20T22:26:38.660Z,97667.66
2022-08-20T22:30:43.016Z,97666.00
2022-08-20T22:34:48.086Z,97654.66
2022-08-20T22:38:54.674Z,97654.66
2022-08-20T22:42:58.078Z,97647.56
2022-08-20T22:47:06.907Z,97646.13
2022-08-20T22:51:16.354Z,97647.16
2022-08-20T22:55:20.106Z,97648.75
2022-08-20T22:59:25.112Z,97641.06
2022-08-20T23:03:40.187Z,97647.16
2022-08-20T23:07:46.609Z,97639.03
2022-08-20T23:11:51.919Z,97633.97
2022-08-20T23:15:55.605Z,97628.69
2022-08-20T23:19:59.775Z,97629.69
2022-08-20T23:24:05.058Z,97628.06
2022-08-20T23:28:09.767Z,97624.63
2022-08-20T23:32:14.249Z,97625.44
2022-08-20T23:36:24.499Z,97623.41
2022-08-20T23:40:30.996Z,97618.13
2022-08-20T23:44:34.487Z,97612.84
2022-08-20T23:48:38.476Z,97615.25
2022-08-20T23:52:41.746Z,97616.88
2022-08-20T23:56:46.961Z,97607.13
